Terminal Aerodrome Forecast
Issued by NWS Tampa Bay Area, FL

Home | Current Version | Previous Version | Text Only | Print | Product List | Glossary On
Versions: 1 2 3 4 5 6 7 8 9 10 11 12
152
FTUS42 KTBW 170531
TAFFMY
TAF
KFMY 170531Z 1706/1806 VRB04KT P6SM BKN250
     FM171400 01007KT P6SM SCT020 SCT250
     FM172000 33013G23KT P6SM BKN040
     FM180000 34012G18KT P6SM SCT030=

USA.gov is the U.S. government's official web portal to all federal, state and local government web resources and services.